sensor_id;sensor_type;location;lat;lon;timestamp;P1;durP1;ratioP1;P2;durP2;ratioP2
25717;SDS011;13574;52.040;5.692;2023-03-08T00:01:00;9.40;;;4.93;;
25717;SDS011;13574;52.040;5.692;2023-03-08T00:03:26;8.25;;;4.35;;
25717;SDS011;13574;52.040;5.692;2023-03-08T00:05:51;13.75;;;4.97;;
25717;SDS011;13574;52.040;5.692;2023-03-08T00:08:19;8.18;;;4.60;;
25717;SDS011;13574;52.040;5.692;2023-03-08T00:10:45;11.23;;;4.40;;
25717;SDS011;13574;52.040;5.692;2023-03-08T00:13:11;7.40;;;4.47;;
25717;SDS011;13574;52.040;5.692;2023-03-08T00:15:37;8.50;;;4.80;;
25717;SDS011;13574;52.040;5.692;2023-03-08T00:18:04;10.15;;;4.32;;
25717;SDS011;13574;52.040;5.692;2023-03-08T00:20:30;7.65;;;4.55;;
25717;SDS011;13574;52.040;5.692;2023-03-08T00:22:56;7.80;;;4.15;;
25717;SDS011;13574;52.040;5.692;2023-03-08T00:25:21;10.52;;;5.20;;
25717;SDS011;13574;52.040;5.692;2023-03-08T00:27:47;11.32;;;5.03;;
25717;SDS011;13574;52.040;5.692;2023-03-08T00:30:13;8.73;;;4.90;;
25717;SDS011;13574;52.040;5.692;2023-03-08T00:32:39;13.18;;;5.95;;
25717;SDS011;13574;52.040;5.692;2023-03-08T00:35:05;11.85;;;5.50;;
25717;SDS011;13574;52.040;5.692;2023-03-08T00:37:31;10.68;;;5.75;;
25717;SDS011;13574;52.040;5.692;2023-03-08T00:39:57;10.75;;;6.55;;
25717;SDS011;13574;52.040;5.692;2023-03-08T00:42:23;14.90;;;7.82;;
25717;SDS011;13574;52.040;5.692;2023-03-08T00:44:49;10.15;;;6.70;;
25717;SDS011;13574;52.040;5.692;2023-03-08T00:47:15;12.98;;;6.43;;
25717;SDS011;13574;52.040;5.692;2023-03-08T00:49:41;10.35;;;7.20;;
25717;SDS011;13574;52.040;5.692;2023-03-08T00:52:08;13.35;;;7.38;;
25717;SDS011;13574;52.040;5.692;2023-03-08T00:54:34;15.38;;;8.27;;
25717;SDS011;13574;52.040;5.692;2023-03-08T00:57:00;17.95;;;9.68;;
25717;SDS011;13574;52.040;5.692;2023-03-08T00:59:26;15.35;;;9.02;;
25717;SDS011;13574;52.040;5.692;2023-03-08T01:01:51;14.68;;;8.57;;
25717;SDS011;13574;52.040;5.692;2023-03-08T01:04:17;15.75;;;9.70;;
25717;SDS011;13574;52.040;5.692;2023-03-08T01:06:43;16.60;;;10.23;;
25717;SDS011;13574;52.040;5.692;2023-03-08T01:09:09;14.80;;;9.07;;
25717;SDS011;13574;52.040;5.692;2023-03-08T01:11:35;13.65;;;9.50;;
25717;SDS011;13574;52.040;5.692;2023-03-08T01:14:02;21.10;;;11.10;;
25717;SDS011;13574;52.040;5.692;2023-03-08T01:16:30;18.67;;;11.75;;
25717;SDS011;13574;52.040;5.692;2023-03-08T01:18:57;17.55;;;11.32;;
25717;SDS011;13574;52.040;5.692;2023-03-08T01:21:24;20.13;;;12.25;;
25717;SDS011;13574;52.040;5.692;2023-03-08T01:23:50;17.92;;;10.80;;
25717;SDS011;13574;52.040;5.692;2023-03-08T01:26:18;18.98;;;11.27;;
25717;SDS011;13574;52.040;5.692;2023-03-08T01:28:45;18.52;;;12.07;;
25717;SDS011;13574;52.040;5.692;2023-03-08T01:31:13;17.75;;;11.27;;
25717;SDS011;13574;52.040;5.692;2023-03-08T01:33:42;24.67;;;14.52;;
25717;SDS011;13574;52.040;5.692;2023-03-08T01:36:10;21.20;;;12.57;;
25717;SDS011;13574;52.040;5.692;2023-03-08T01:38:37;23.35;;;13.88;;
25717;SDS011;13574;52.040;5.692;2023-03-08T01:41:03;22.02;;;13.65;;
25717;SDS011;13574;52.040;5.692;2023-03-08T01:43:34;20.67;;;13.00;;
25717;SDS011;13574;52.040;5.692;2023-03-08T01:48:54;22.92;;;13.50;;
25717;SDS011;13574;52.040;5.692;2023-03-08T01:51:33;22.05;;;15.25;;
25717;SDS011;13574;52.040;5.692;2023-03-08T01:54:07;24.55;;;15.05;;
25717;SDS011;13574;52.040;5.692;2023-03-08T01:56:43;28.30;;;17.15;;
25717;SDS011;13574;52.040;5.692;2023-03-08T01:59:10;24.10;;;16.10;;
25717;SDS011;13574;52.040;5.692;2023-03-08T02:01:36;27.15;;;16.90;;
25717;SDS011;13574;52.040;5.692;2023-03-08T02:04:04;28.58;;;16.67;;
25717;SDS011;13574;52.040;5.692;2023-03-08T02:06:30;25.73;;;16.45;;
25717;SDS011;13574;52.040;5.692;2023-03-08T02:08:56;25.95;;;17.48;;
25717;SDS011;13574;52.040;5.692;2023-03-08T02:11:23;30.45;;;18.05;;
25717;SDS011;13574;52.040;5.692;2023-03-08T02:13:49;25.83;;;17.02;;
25717;SDS011;13574;52.040;5.692;2023-03-08T02:16:17;27.20;;;16.75;;
25717;SDS011;13574;52.040;5.692;2023-03-08T02:18:54;30.83;;;17.35;;
25717;SDS011;13574;52.040;5.692;2023-03-08T02:21:26;35.13;;;20.20;;
25717;SDS011;13574;52.040;5.692;2023-03-08T02:23:53;32.22;;;18.88;;
25717;SDS011;13574;52.040;5.692;2023-03-08T02:26:19;32.95;;;19.02;;
25717;SDS011;13574;52.040;5.692;2023-03-08T02:28:46;30.13;;;16.40;;
25717;SDS011;13574;52.040;5.692;2023-03-08T02:31:12;29.20;;;16.98;;
25717;SDS011;13574;52.040;5.692;2023-03-08T02:33:38;32.20;;;17.17;;
25717;SDS011;13574;52.040;5.692;2023-03-08T02:36:04;50.13;;;21.48;;
25717;SDS011;13574;52.040;5.692;2023-03-08T02:38:32;47.63;;;19.63;;
25717;SDS011;13574;52.040;5.692;2023-03-08T02:40:58;58.95;;;21.13;;
25717;SDS011;13574;52.040;5.692;2023-03-08T02:43:23;44.22;;;19.50;;
25717;SDS011;13574;52.040;5.692;2023-03-08T02:45:49;34.17;;;18.25;;
25717;SDS011;13574;52.040;5.692;2023-03-08T02:48:15;33.35;;;18.58;;
25717;SDS011;13574;52.040;5.692;2023-03-08T02:50:43;36.70;;;18.00;;
25717;SDS011;13574;52.040;5.692;2023-03-08T02:53:09;33.85;;;18.38;;
25717;SDS011;13574;52.040;5.692;2023-03-08T02:55:34;42.03;;;18.70;;
25717;SDS011;13574;52.040;5.692;2023-03-08T02:58:01;52.88;;;20.85;;
25717;SDS011;13574;52.040;5.692;2023-03-08T03:00:28;34.03;;;18.88;;
25717;SDS011;13574;52.040;5.692;2023-03-08T03:02:53;40.50;;;20.25;;
25717;SDS011;13574;52.040;5.692;2023-03-08T03:05:19;38.50;;;20.42;;
25717;SDS011;13574;52.040;5.692;2023-03-08T03:07:45;44.50;;;20.80;;
25717;SDS011;13574;52.040;5.692;2023-03-08T03:10:11;34.35;;;19.23;;
25717;SDS011;13574;52.040;5.692;2023-03-08T03:12:38;36.13;;;20.10;;
25717;SDS011;13574;52.040;5.692;2023-03-08T03:15:04;35.63;;;19.35;;
25717;SDS011;13574;52.040;5.692;2023-03-08T03:17:31;33.50;;;19.13;;
25717;SDS011;13574;52.040;5.692;2023-03-08T03:19:58;34.65;;;19.13;;
25717;SDS011;13574;52.040;5.692;2023-03-08T03:22:23;35.80;;;18.90;;
25717;SDS011;13574;52.040;5.692;2023-03-08T03:24:50;41.75;;;20.35;;
25717;SDS011;13574;52.040;5.692;2023-03-08T03:27:16;37.60;;;19.58;;
25717;SDS011;13574;52.040;5.692;2023-03-08T03:29:42;43.80;;;22.05;;
25717;SDS011;13574;52.040;5.692;2023-03-08T03:32:08;52.17;;;22.20;;
25717;SDS011;13574;52.040;5.692;2023-03-08T03:34:33;53.90;;;24.08;;
25717;SDS011;13574;52.040;5.692;2023-03-08T03:36:59;78.15;;;24.50;;
25717;SDS011;13574;52.040;5.692;2023-03-08T03:39:25;52.05;;;22.95;;
25717;SDS011;13574;52.040;5.692;2023-03-08T03:41:50;63.92;;;24.45;;
25717;SDS011;13574;52.040;5.692;2023-03-08T03:44:16;84.25;;;25.25;;
25717;SDS011;13574;52.040;5.692;2023-03-08T03:46:42;84.90;;;24.83;;
25717;SDS011;13574;52.040;5.692;2023-03-08T03:49:08;90.35;;;24.80;;
25717;SDS011;13574;52.040;5.692;2023-03-08T03:51:33;84.88;;;26.02;;
25717;SDS011;13574;52.040;5.692;2023-03-08T03:53:59;85.88;;;25.60;;
25717;SDS011;13574;52.040;5.692;2023-03-08T03:56:25;66.93;;;25.38;;
25717;SDS011;13574;52.040;5.692;2023-03-08T03:58:54;55.00;;;23.95;;
25717;SDS011;13574;52.040;5.692;2023-03-08T04:01:21;67.93;;;26.02;;
25717;SDS011;13574;52.040;5.692;2023-03-08T04:03:49;89.32;;;28.55;;
25717;SDS011;13574;52.040;5.692;2023-03-08T04:06:16;87.22;;;27.98;;
25717;SDS011;13574;52.040;5.692;2023-03-08T04:08:44;88.20;;;28.42;;
25717;SDS011;13574;52.040;5.692;2023-03-08T04:11:12;92.80;;;29.70;;
25717;SDS011;13574;52.040;5.692;2023-03-08T04:13:39;62.45;;;28.35;;
25717;SDS011;13574;52.040;5.692;2023-03-08T04:16:09;71.25;;;27.98;;
25717;SDS011;13574;52.040;5.692;2023-03-08T04:18:42;88.63;;;29.63;;
25717;SDS011;13574;52.040;5.692;2023-03-08T04:21:09;61.30;;;26.10;;
25717;SDS011;13574;52.040;5.692;2023-03-08T04:23:35;70.95;;;29.10;;
25717;SDS011;13574;52.040;5.692;2023-03-08T04:26:01;76.63;;;29.63;;
25717;SDS011;13574;52.040;5.692;2023-03-08T04:28:28;95.68;;;30.30;;
25717;SDS011;13574;52.040;5.692;2023-03-08T04:30:54;117.13;;;30.15;;
25717;SDS011;13574;52.040;5.692;2023-03-08T04:33:19;98.18;;;31.10;;
25717;SDS011;13574;52.040;5.692;2023-03-08T04:35:45;100.95;;;31.20;;
25717;SDS011;13574;52.040;5.692;2023-03-08T04:38:11;106.53;;;30.77;;
25717;SDS011;13574;52.040;5.692;2023-03-08T04:40:37;123.00;;;32.67;;
25717;SDS011;13574;52.040;5.692;2023-03-08T04:43:23;93.47;;;31.80;;
25717;SDS011;13574;52.040;5.692;2023-03-08T04:45:49;90.60;;;30.58;;
25717;SDS011;13574;52.040;5.692;2023-03-08T04:48:14;99.03;;;32.70;;
25717;SDS011;13574;52.040;5.692;2023-03-08T04:50:40;76.60;;;31.65;;
25717;SDS011;13574;52.040;5.692;2023-03-08T04:53:06;107.00;;;35.13;;
25717;SDS011;13574;52.040;5.692;2023-03-08T04:55:32;109.95;;;34.35;;
25717;SDS011;13574;52.040;5.692;2023-03-08T04:58:00;106.18;;;34.78;;
25717;SDS011;13574;52.040;5.692;2023-03-08T05:00:26;101.53;;;35.28;;
25717;SDS011;13574;52.040;5.692;2023-03-08T05:02:51;82.93;;;33.05;;
25717;SDS011;13574;52.040;5.692;2023-03-08T05:05:17;94.60;;;34.90;;
25717;SDS011;13574;52.040;5.692;2023-03-08T05:07:43;85.47;;;33.40;;
25717;SDS011;13574;52.040;5.692;2023-03-08T05:10:08;84.85;;;33.67;;
25717;SDS011;13574;52.040;5.692;2023-03-08T05:12:34;91.50;;;34.55;;
25717;SDS011;13574;52.040;5.692;2023-03-08T05:15:00;91.30;;;32.92;;
25717;SDS011;13574;52.040;5.692;2023-03-08T05:17:26;99.57;;;33.85;;
25717;SDS011;13574;52.040;5.692;2023-03-08T05:19:51;112.72;;;33.60;;
25717;SDS011;13574;52.040;5.692;2023-03-08T05:22:17;99.50;;;33.17;;
25717;SDS011;13574;52.040;5.692;2023-03-08T05:24:43;117.32;;;34.75;;
25717;SDS011;13574;52.040;5.692;2023-03-08T05:27:10;105.47;;;34.08;;
25717;SDS011;13574;52.040;5.692;2023-03-08T05:29:35;110.57;;;33.95;;
25717;SDS011;13574;52.040;5.692;2023-03-08T05:32:04;103.25;;;35.35;;
25717;SDS011;13574;52.040;5.692;2023-03-08T05:34:29;100.22;;;34.83;;
25717;SDS011;13574;52.040;5.692;2023-03-08T05:36:55;100.40;;;35.42;;
25717;SDS011;13574;52.040;5.692;2023-03-08T05:39:21;106.22;;;33.50;;
25717;SDS011;13574;52.040;5.692;2023-03-08T05:41:47;113.70;;;36.42;;
25717;SDS011;13574;52.040;5.692;2023-03-08T05:44:13;126.97;;;35.75;;
25717;SDS011;13574;52.040;5.692;2023-03-08T05:46:38;99.57;;;35.92;;
25717;SDS011;13574;52.040;5.692;2023-03-08T05:49:07;99.55;;;36.95;;
25717;SDS011;13574;52.040;5.692;2023-03-08T05:51:33;114.95;;;38.78;;
25717;SDS011;13574;52.040;5.692;2023-03-08T05:53:58;127.25;;;38.40;;
25717;SDS011;13574;52.040;5.692;2023-03-08T05:56:24;107.20;;;38.65;;
25717;SDS011;13574;52.040;5.692;2023-03-08T05:58:50;127.72;;;39.10;;
25717;SDS011;13574;52.040;5.692;2023-03-08T06:01:20;103.45;;;36.95;;
25717;SDS011;13574;52.040;5.692;2023-03-08T06:03:48;116.93;;;39.63;;
25717;SDS011;13574;52.040;5.692;2023-03-08T06:06:16;141.90;;;39.97;;
25717;SDS011;13574;52.040;5.692;2023-03-08T06:08:43;164.90;;;41.85;;
25717;SDS011;13574;52.040;5.692;2023-03-08T06:11:09;162.07;;;41.75;;
25717;SDS011;13574;52.040;5.692;2023-03-08T06:13:35;129.40;;;42.08;;
25717;SDS011;13574;52.040;5.692;2023-03-08T06:16:01;169.95;;;41.90;;
25717;SDS011;13574;52.040;5.692;2023-03-08T06:18:30;120.97;;;41.05;;
25717;SDS011;13574;52.040;5.692;2023-03-08T06:21:03;151.45;;;41.10;;
25717;SDS011;13574;52.040;5.692;2023-03-08T06:23:31;147.40;;;39.90;;
25717;SDS011;13574;52.040;5.692;2023-03-08T06:25:58;140.93;;;42.35;;
25717;SDS011;13574;52.040;5.692;2023-03-08T06:28:24;127.18;;;42.33;;
25717;SDS011;13574;52.040;5.692;2023-03-08T06:30:50;125.43;;;43.88;;
25717;SDS011;13574;52.040;5.692;2023-03-08T06:33:17;134.63;;;43.05;;
25717;SDS011;13574;52.040;5.692;2023-03-08T06:35:54;147.07;;;42.60;;
25717;SDS011;13574;52.040;5.692;2023-03-08T06:38:23;137.25;;;41.72;;
25717;SDS011;13574;52.040;5.692;2023-03-08T06:40:50;114.97;;;42.88;;
25717;SDS011;13574;52.040;5.692;2023-03-08T06:43:16;129.52;;;42.60;;
25717;SDS011;13574;52.040;5.692;2023-03-08T06:45:41;132.75;;;42.30;;
25717;SDS011;13574;52.040;5.692;2023-03-08T06:48:07;137.75;;;42.95;;
25717;SDS011;13574;52.040;5.692;2023-03-08T06:50:33;124.32;;;42.83;;
25717;SDS011;13574;52.040;5.692;2023-03-08T06:52:59;130.32;;;42.05;;
25717;SDS011;13574;52.040;5.692;2023-03-08T06:55:24;137.95;;;43.33;;
25717;SDS011;13574;52.040;5.692;2023-03-08T06:57:50;141.90;;;43.88;;
25717;SDS011;13574;52.040;5.692;2023-03-08T07:00:16;135.40;;;44.30;;
25717;SDS011;13574;52.040;5.692;2023-03-08T07:02:42;141.05;;;44.10;;
25717;SDS011;13574;52.040;5.692;2023-03-08T07:05:08;134.05;;;44.53;;
25717;SDS011;13574;52.040;5.692;2023-03-08T07:07:34;148.60;;;44.50;;
25717;SDS011;13574;52.040;5.692;2023-03-08T07:10:01;143.25;;;46.03;;
25717;SDS011;13574;52.040;5.692;2023-03-08T07:12:27;139.38;;;45.95;;
25717;SDS011;13574;52.040;5.692;2023-03-08T07:14:56;128.32;;;44.22;;
25717;SDS011;13574;52.040;5.692;2023-03-08T07:17:22;138.30;;;44.65;;
25717;SDS011;13574;52.040;5.692;2023-03-08T07:19:48;150.30;;;45.55;;
25717;SDS011;13574;52.040;5.692;2023-03-08T07:22:14;151.45;;;46.58;;
25717;SDS011;13574;52.040;5.692;2023-03-08T07:24:39;147.85;;;47.00;;
25717;SDS011;13574;52.040;5.692;2023-03-08T07:27:05;150.43;;;43.45;;
25717;SDS011;13574;52.040;5.692;2023-03-08T07:29:31;149.80;;;43.20;;
25717;SDS011;13574;52.040;5.692;2023-03-08T07:31:56;140.48;;;43.65;;
25717;SDS011;13574;52.040;5.692;2023-03-08T07:34:22;150.70;;;44.50;;
25717;SDS011;13574;52.040;5.692;2023-03-08T07:36:48;157.55;;;44.80;;
25717;SDS011;13574;52.040;5.692;2023-03-08T07:39:15;163.05;;;45.85;;
25717;SDS011;13574;52.040;5.692;2023-03-08T07:41:40;143.93;;;43.80;;
25717;SDS011;13574;52.040;5.692;2023-03-08T07:44:06;141.77;;;43.65;;
25717;SDS011;13574;52.040;5.692;2023-03-08T07:46:32;137.63;;;42.67;;
25717;SDS011;13574;52.040;5.692;2023-03-08T07:48:57;134.88;;;40.70;;
25717;SDS011;13574;52.040;5.692;2023-03-08T07:51:23;131.55;;;40.90;;
25717;SDS011;13574;52.040;5.692;2023-03-08T07:53:50;136.98;;;41.20;;
25717;SDS011;13574;52.040;5.692;2023-03-08T07:56:16;133.45;;;40.00;;
25717;SDS011;13574;52.040;5.692;2023-03-08T07:58:42;125.10;;;39.58;;
25717;SDS011;13574;52.040;5.692;2023-03-08T08:01:08;132.00;;;41.30;;
25717;SDS011;13574;52.040;5.692;2023-03-08T08:03:36;135.30;;;39.85;;
25717;SDS011;13574;52.040;5.692;2023-03-08T08:06:02;132.88;;;40.72;;
25717;SDS011;13574;52.040;5.692;2023-03-08T08:08:29;139.70;;;41.10;;
25717;SDS011;13574;52.040;5.692;2023-03-08T08:11:01;133.93;;;39.47;;
25717;SDS011;13574;52.040;5.692;2023-03-08T08:13:33;123.57;;;40.20;;
25717;SDS011;13574;52.040;5.692;2023-03-08T08:15:59;128.27;;;38.90;;
25717;SDS011;13574;52.040;5.692;2023-03-08T08:18:26;126.70;;;37.63;;
25717;SDS011;13574;52.040;5.692;2023-03-08T08:21:01;113.63;;;37.90;;
25717;SDS011;13574;52.040;5.692;2023-03-08T08:23:32;108.93;;;37.67;;
25717;SDS011;13574;52.040;5.692;2023-03-08T08:25:58;124.80;;;37.85;;
25717;SDS011;13574;52.040;5.692;2023-03-08T08:28:24;118.85;;;37.78;;
25717;SDS011;13574;52.040;5.692;2023-03-08T08:30:55;121.20;;;37.58;;
25717;SDS011;13574;52.040;5.692;2023-03-08T08:33:41;123.78;;;37.08;;
25717;SDS011;13574;52.040;5.692;2023-03-08T08:36:12;113.65;;;37.30;;
25717;SDS011;13574;52.040;5.692;2023-03-08T08:38:45;113.75;;;36.55;;
25717;SDS011;13574;52.040;5.692;2023-03-08T08:41:15;120.28;;;36.92;;
25717;SDS011;13574;52.040;5.692;2023-03-08T08:43:53;110.53;;;37.15;;
25717;SDS011;13574;52.040;5.692;2023-03-08T08:46:23;112.55;;;38.53;;
25717;SDS011;13574;52.040;5.692;2023-03-08T08:48:49;106.05;;;37.30;;
25717;SDS011;13574;52.040;5.692;2023-03-08T08:51:14;109.93;;;37.25;;
25717;SDS011;13574;52.040;5.692;2023-03-08T08:53:40;103.65;;;34.78;;
25717;SDS011;13574;52.040;5.692;2023-03-08T08:56:11;107.22;;;35.20;;
25717;SDS011;13574;52.040;5.692;2023-03-08T08:58:45;101.40;;;35.95;;
25717;SDS011;13574;52.040;5.692;2023-03-08T09:01:19;112.30;;;36.22;;
25717;SDS011;13574;52.040;5.692;2023-03-08T09:03:50;101.78;;;35.28;;
25717;SDS011;13574;52.040;5.692;2023-03-08T09:06:16;90.03;;;32.03;;
25717;SDS011;13574;52.040;5.692;2023-03-08T09:08:44;92.53;;;33.78;;
25717;SDS011;13574;52.040;5.692;2023-03-08T09:11:12;92.85;;;33.67;;
25717;SDS011;13574;52.040;5.692;2023-03-08T09:13:38;92.35;;;30.75;;
25717;SDS011;13574;52.040;5.692;2023-03-08T09:16:06;84.93;;;32.30;;
25717;SDS011;13574;52.040;5.692;2023-03-08T09:18:44;84.22;;;30.15;;
25717;SDS011;13574;52.040;5.692;2023-03-08T09:21:10;88.25;;;31.30;;
25717;SDS011;13574;52.040;5.692;2023-03-08T09:23:35;86.78;;;31.02;;
25717;SDS011;13574;52.040;5.692;2023-03-08T09:26:01;82.82;;;30.08;;
25717;SDS011;13574;52.040;5.692;2023-03-08T09:28:28;85.30;;;28.35;;
25717;SDS011;13574;52.040;5.692;2023-03-08T09:30:54;87.63;;;29.75;;
25717;SDS011;13574;52.040;5.692;2023-03-08T09:33:20;76.25;;;28.80;;
25717;SDS011;13574;52.040;5.692;2023-03-08T09:35:58;75.35;;;27.08;;
25717;SDS011;13574;52.040;5.692;2023-03-08T09:38:27;72.88;;;27.33;;
25717;SDS011;13574;52.040;5.692;2023-03-08T09:41:22;70.40;;;27.23;;
25717;SDS011;13574;52.040;5.692;2023-03-08T09:46:48;72.20;;;27.73;;
25717;SDS011;13574;52.040;5.692;2023-03-08T09:49:24;74.28;;;28.73;;
25717;SDS011;13574;52.040;5.692;2023-03-08T09:52:16;70.35;;;26.67;;
25717;SDS011;13574;52.040;5.692;2023-03-08T09:54:57;65.78;;;25.85;;
25717;SDS011;13574;52.040;5.692;2023-03-08T09:57:42;66.70;;;28.17;;
25717;SDS011;13574;52.040;5.692;2023-03-08T10:00:20;64.63;;;25.40;;
25717;SDS011;13574;52.040;5.692;2023-03-08T10:08:26;67.25;;;27.42;;
25717;SDS011;13574;52.040;5.692;2023-03-08T10:11:09;63.10;;;27.30;;
25717;SDS011;13574;52.040;5.692;2023-03-08T10:13:46;61.85;;;24.38;;
25717;SDS011;13574;52.040;5.692;2023-03-08T10:16:23;63.53;;;26.48;;
25717;SDS011;13574;52.040;5.692;2023-03-08T10:21:49;69.18;;;26.70;;
25717;SDS011;13574;52.040;5.692;2023-03-08T10:29:51;62.35;;;26.70;;
25717;SDS011;13574;52.040;5.692;2023-03-08T10:32:22;63.92;;;26.80;;
25717;SDS011;13574;52.040;5.692;2023-03-08T10:34:51;65.22;;;27.15;;
25717;SDS011;13574;52.040;5.692;2023-03-08T10:37:20;66.63;;;25.70;;
25717;SDS011;13574;52.040;5.692;2023-03-08T10:39:49;62.22;;;26.42;;
25717;SDS011;13574;52.040;5.692;2023-03-08T10:42:21;64.00;;;26.15;;
25717;SDS011;13574;52.040;5.692;2023-03-08T10:44:54;58.20;;;25.17;;
25717;SDS011;13574;52.040;5.692;2023-03-08T10:47:40;59.92;;;25.58;;
25717;SDS011;13574;52.040;5.692;2023-03-08T10:50:22;56.53;;;23.17;;
25717;SDS011;13574;52.040;5.692;2023-03-08T10:53:06;60.95;;;24.40;;
25717;SDS011;13574;52.040;5.692;2023-03-08T10:55:37;57.08;;;22.95;;
25717;SDS011;13574;52.040;5.692;2023-03-08T10:58:20;52.63;;;22.05;;
25717;SDS011;13574;52.040;5.692;2023-03-08T11:01:02;51.83;;;21.20;;
25717;SDS011;13574;52.040;5.692;2023-03-08T11:03:30;49.67;;;19.98;;
25717;SDS011;13574;52.040;5.692;2023-03-08T11:05:58;48.45;;;20.65;;
25717;SDS011;13574;52.040;5.692;2023-03-08T11:08:36;51.75;;;21.52;;
25717;SDS011;13574;52.040;5.692;2023-03-08T11:11:15;49.78;;;20.08;;
25717;SDS011;13574;52.040;5.692;2023-03-08T11:13:42;49.22;;;19.40;;
25717;SDS011;13574;52.040;5.692;2023-03-08T11:16:18;45.85;;;19.83;;
25717;SDS011;13574;52.040;5.692;2023-03-08T11:38:23;35.05;;;15.65;;
25717;SDS011;13574;52.040;5.692;2023-03-08T11:41:00;37.00;;;17.33;;
25717;SDS011;13574;52.040;5.692;2023-03-08T11:49:30;36.72;;;15.25;;
25717;SDS011;13574;52.040;5.692;2023-03-08T11:57:29;26.17;;;13.23;;
25717;SDS011;13574;52.040;5.692;2023-03-08T12:00:02;30.52;;;13.63;;
25717;SDS011;13574;52.040;5.692;2023-03-08T12:02:37;30.00;;;13.88;;
25717;SDS011;13574;52.040;5.692;2023-03-08T12:05:13;27.63;;;12.95;;
25717;SDS011;13574;52.040;5.692;2023-03-08T12:07:59;26.73;;;13.32;;
25717;SDS011;13574;52.040;5.692;2023-03-08T12:13:19;28.33;;;12.90;;
25717;SDS011;13574;52.040;5.692;2023-03-08T12:18:58;28.65;;;13.48;;
25717;SDS011;13574;52.040;5.692;2023-03-08T12:21:48;27.98;;;13.18;;
25717;SDS011;13574;52.040;5.692;2023-03-08T12:24:40;27.95;;;12.65;;
25717;SDS011;13574;52.040;5.692;2023-03-08T12:27:19;27.40;;;12.55;;
25717;SDS011;13574;52.040;5.692;2023-03-08T12:32:57;28.15;;;13.75;;
25717;SDS011;13574;52.040;5.692;2023-03-08T12:35:29;31.23;;;13.80;;
25717;SDS011;13574;52.040;5.692;2023-03-08T12:38:04;32.35;;;14.40;;
25717;SDS011;13574;52.040;5.692;2023-03-08T12:40:51;32.58;;;14.30;;
25717;SDS011;13574;52.040;5.692;2023-03-08T12:45:59;33.38;;;16.75;;
25717;SDS011;13574;52.040;5.692;2023-03-08T12:56:30;32.42;;;15.23;;
25717;SDS011;13574;52.040;5.692;2023-03-08T13:01:58;61.28;;;34.65;;
25717;SDS011;13574;52.040;5.692;2023-03-08T13:04:36;39.22;;;20.15;;
25717;SDS011;13574;52.040;5.692;2023-03-08T13:07:08;34.95;;;18.38;;
25717;SDS011;13574;52.040;5.692;2023-03-08T13:14:42;28.13;;;14.30;;
25717;SDS011;13574;52.040;5.692;2023-03-08T13:20:00;30.35;;;15.65;;
25717;SDS011;13574;52.040;5.692;2023-03-08T13:22:40;30.27;;;14.15;;
25717;SDS011;13574;52.040;5.692;2023-03-08T13:28:17;27.58;;;13.35;;
25717;SDS011;13574;52.040;5.692;2023-03-08T13:30:46;26.20;;;12.73;;
25717;SDS011;13574;52.040;5.692;2023-03-08T13:33:14;24.33;;;12.20;;
25717;SDS011;13574;52.040;5.692;2023-03-08T13:38:58;20.13;;;11.02;;
25717;SDS011;13574;52.040;5.692;2023-03-08T13:41:40;21.17;;;10.48;;
25717;SDS011;13574;52.040;5.692;2023-03-08T13:46:40;21.70;;;9.77;;
25717;SDS011;13574;52.040;5.692;2023-03-08T13:51:58;19.08;;;9.15;;
25717;SDS011;13574;52.040;5.692;2023-03-08T13:54:35;18.65;;;9.23;;
25717;SDS011;13574;52.040;5.692;2023-03-08T13:57:16;17.48;;;9.15;;
25717;SDS011;13574;52.040;5.692;2023-03-08T13:59:46;16.77;;;9.25;;
25717;SDS011;13574;52.040;5.692;2023-03-08T14:02:18;18.80;;;9.63;;
25717;SDS011;13574;52.040;5.692;2023-03-08T14:04:48;17.05;;;8.45;;
25717;SDS011;13574;52.040;5.692;2023-03-08T14:07:28;17.15;;;9.10;;
25717;SDS011;13574;52.040;5.692;2023-03-08T14:09:59;16.20;;;8.77;;
25717;SDS011;13574;52.040;5.692;2023-03-08T14:12:26;16.52;;;8.75;;
25717;SDS011;13574;52.040;5.692;2023-03-08T14:14:57;19.23;;;9.60;;
25717;SDS011;13574;52.040;5.692;2023-03-08T14:17:26;17.23;;;9.57;;
25717;SDS011;13574;52.040;5.692;2023-03-08T14:19:58;18.77;;;9.25;;
25717;SDS011;13574;52.040;5.692;2023-03-08T14:22:33;18.25;;;9.02;;
25717;SDS011;13574;52.040;5.692;2023-03-08T14:25:19;16.77;;;9.18;;
25717;SDS011;13574;52.040;5.692;2023-03-08T14:28:01;18.00;;;9.27;;
25717;SDS011;13574;52.040;5.692;2023-03-08T14:30:29;16.95;;;9.85;;
25717;SDS011;13574;52.040;5.692;2023-03-08T14:35:45;17.13;;;8.63;;
25717;SDS011;13574;52.040;5.692;2023-03-08T14:38:35;17.50;;;8.77;;
25717;SDS011;13574;52.040;5.692;2023-03-08T14:41:06;17.75;;;9.98;;
25717;SDS011;13574;52.040;5.692;2023-03-08T14:43:35;16.48;;;9.65;;
25717;SDS011;13574;52.040;5.692;2023-03-08T14:46:13;23.15;;;10.30;;
25717;SDS011;13574;52.040;5.692;2023-03-08T14:48:54;16.35;;;9.00;;
25717;SDS011;13574;52.040;5.692;2023-03-08T14:54:28;19.50;;;10.55;;
25717;SDS011;13574;52.040;5.692;2023-03-08T14:57:21;18.00;;;9.82;;
25717;SDS011;13574;52.040;5.692;2023-03-08T14:59:51;18.15;;;10.82;;
25717;SDS011;13574;52.040;5.692;2023-03-08T15:02:23;16.33;;;9.18;;
25717;SDS011;13574;52.040;5.692;2023-03-08T15:04:58;18.42;;;10.10;;
25717;SDS011;13574;52.040;5.692;2023-03-08T15:07:49;20.70;;;10.10;;
25717;SDS011;13574;52.040;5.692;2023-03-08T15:13:23;16.65;;;9.77;;
25717;SDS011;13574;52.040;5.692;2023-03-08T15:15:49;17.98;;;10.07;;
25717;SDS011;13574;52.040;5.692;2023-03-08T15:18:19;20.58;;;10.27;;
25717;SDS011;13574;52.040;5.692;2023-03-08T15:20:48;19.08;;;10.00;;
25717;SDS011;13574;52.040;5.692;2023-03-08T15:23:23;20.05;;;11.02;;
25717;SDS011;13574;52.040;5.692;2023-03-08T15:26:09;21.15;;;11.10;;
25717;SDS011;13574;52.040;5.692;2023-03-08T15:28:45;22.17;;;10.98;;
25717;SDS011;13574;52.040;5.692;2023-03-08T15:31:17;19.50;;;10.23;;
25717;SDS011;13574;52.040;5.692;2023-03-08T15:33:42;21.70;;;11.40;;
25717;SDS011;13574;52.040;5.692;2023-03-08T15:39:02;22.15;;;11.77;;
25717;SDS011;13574;52.040;5.692;2023-03-08T15:41:28;24.58;;;12.15;;
25717;SDS011;13574;52.040;5.692;2023-03-08T15:44:04;22.30;;;12.20;;
25717;SDS011;13574;52.040;5.692;2023-03-08T15:46:35;24.92;;;14.30;;
25717;SDS011;13574;52.040;5.692;2023-03-08T15:49:08;20.98;;;11.35;;
25717;SDS011;13574;52.040;5.692;2023-03-08T15:51:35;22.73;;;11.52;;
25717;SDS011;13574;52.040;5.692;2023-03-08T15:54:04;24.55;;;12.52;;
25717;SDS011;13574;52.040;5.692;2023-03-08T15:56:50;24.33;;;12.15;;
25717;SDS011;13574;52.040;5.692;2023-03-08T15:59:17;24.83;;;13.30;;
25717;SDS011;13574;52.040;5.692;2023-03-08T16:05:04;23.98;;;12.35;;
25717;SDS011;13574;52.040;5.692;2023-03-08T16:07:39;24.17;;;12.70;;
25717;SDS011;13574;52.040;5.692;2023-03-08T16:10:08;25.55;;;13.07;;
25717;SDS011;13574;52.040;5.692;2023-03-08T16:12:43;24.58;;;11.93;;
25717;SDS011;13574;52.040;5.692;2023-03-08T16:15:55;27.77;;;13.10;;
25717;SDS011;13574;52.040;5.692;2023-03-08T16:18:58;24.83;;;11.57;;
25717;SDS011;13574;52.040;5.692;2023-03-08T16:21:23;28.77;;;13.52;;
25717;SDS011;13574;52.040;5.692;2023-03-08T16:23:52;25.73;;;12.68;;